createdAt,value
2023-11-18T00:00:57.139Z,98831.50
2023-11-18T00:03:00.052Z,98836.53
2023-11-18T00:05:02.584Z,98839.41
2023-11-18T00:07:05.477Z,98834.41
2023-11-18T00:09:13.245Z,98842.44
2023-11-18T00:11:22.249Z,98857.72
2023-11-18T00:13:28.084Z,98846.88
2023-11-18T00:15:31.171Z,98848.63
2023-11-18T00:17:34.356Z,98866.53
2023-11-18T00:19:37.804Z,98872.25
2023-11-18T00:21:40.468Z,98863.03
2023-11-18T00:23:42.762Z,98868.47
2023-11-18T00:25:46.745Z,98882.03
2023-11-18T00:27:49.397Z,98872.06
2023-11-18T00:29:51.818Z,98878.34
2023-11-18T00:31:55.468Z,98883.31
2023-11-18T00:33:58.132Z,98886.06
2023-11-18T00:36:01.642Z,98896.59
2023-11-18T00:38:04.247Z,98888.16
2023-11-18T00:40:09.101Z,98891.25
2023-11-18T00:42:12.375Z,98897.81
2023-11-18T00:44:15.145Z,98895.53
2023-11-18T00:46:18.301Z,98905.59
2023-11-18T00:48:20.674Z,98904.59
2023-11-18T00:50:23.270Z,98901.09
2023-11-18T00:52:25.939Z,98905.69
2023-11-18T00:54:28.329Z,98914.97
2023-11-18T00:56:30.760Z,98919.81
2023-11-18T00:58:33.300Z,98920.56
2023-11-18T01:00:35.851Z,98929.72
2023-11-18T01:02:40.253Z,98933.22
2023-11-18T01:04:42.636Z,98934.41
2023-11-18T01:06:45.131Z,98925.88
2023-11-18T01:08:48.275Z,98936.25
2023-11-18T01:10:50.778Z,98937.25
2023-11-18T01:12:53.173Z,98933.72
2023-11-18T01:14:55.741Z,98945.50
2023-11-18T01:16:58.185Z,98932.22
2023-11-18T01:19:00.864Z,98943.69
2023-11-18T01:21:04.111Z,98942.53
2023-11-18T01:23:06.538Z,98932.88
2023-11-18T01:25:10.260Z,98945.44
2023-11-18T01:27:13.288Z,98944.75
2023-11-18T01:29:15.819Z,98951.78
2023-11-18T01:31:19.013Z,98946.44
2023-11-18T01:33:21.607Z,98951.88
2023-11-18T01:35:28.228Z,98958.97
2023-11-18T01:37:30.707Z,98951.63
2023-11-18T01:39:33.086Z,98951.47
2023-11-18T01:41:35.557Z,98968.19
2023-11-18T01:43:38.084Z,98957.63
2023-11-18T01:45:43.076Z,98964.00
2023-11-18T01:47:47.101Z,98965.88
2023-11-18T01:49:52.960Z,98972.09
2023-11-18T01:51:55.619Z,98972.84
2023-11-18T01:54:01.406Z,98969.44
2023-11-18T01:56:06.681Z,98974.00
2023-11-18T01:58:12.107Z,98968.63
2023-11-18T02:00:19.447Z,98973.03
2023-11-18T02:02:25.318Z,98973.03
2023-11-18T02:04:29.569Z,98977.59
2023-11-18T02:06:32.114Z,98972.09
2023-11-18T02:08:38.605Z,98973.78
2023-11-18T02:11:13.571Z,98972.06
2023-11-18T02:13:27.094Z,98977.88
2023-11-18T02:15:33.292Z,98978.59
2023-11-18T02:17:39.278Z,98984.00
2023-11-18T02:19:42.505Z,98982.50
2023-11-18T02:21:46.925Z,98987.84
2023-11-18T02:23:49.858Z,98994.03
2023-11-18T02:25:52.402Z,99001.50
2023-11-18T02:27:55.129Z,98998.09
2023-11-18T02:29:58.460Z,98994.44
2023-11-18T02:32:16.596Z,98992.81
2023-11-18T02:34:27.349Z,98992.63
2023-11-18T02:36:38.586Z,99001.13
2023-11-18T02:38:56.922Z,98998.34
2023-11-18T02:41:03.277Z,99003.19
2023-11-18T02:43:06.781Z,99006.94
2023-11-18T02:45:13.803Z,99010.31
2023-11-18T02:47:17.642Z,99018.22
2023-11-18T02:49:20.082Z,99018.16
2023-11-18T02:51:22.531Z,99015.44
2023-11-18T02:53:25.933Z,99015.56
2023-11-18T02:55:28.465Z,99020.06
2023-11-18T02:57:30.931Z,99025.38
2023-11-18T02:59:34.279Z,99021.78
2023-11-18T03:01:36.915Z,99033.34
2023-11-18T03:03:39.460Z,99042.03
2023-11-18T03:05:41.983Z,99039.69
2023-11-18T03:07:46.006Z,99044.66
2023-11-18T03:09:48.535Z,99041.00
2023-11-18T03:11:52.795Z,99040.75
2023-11-18T03:13:55.252Z,99041.19
2023-11-18T03:15:57.769Z,99045.56
2023-11-18T03:18:00.479Z,99040.28
2023-11-18T03:20:03.116Z,99051.38
2023-11-18T03:22:05.842Z,99049.69
2023-11-18T03:24:08.914Z,99058.28
2023-11-18T03:26:14.439Z,99053.22
2023-11-18T03:28:16.870Z,99058.28
2023-11-18T03:30:19.546Z,99065.66
2023-11-18T03:32:22.050Z,99063.94
2023-11-18T03:34:24.488Z,99068.53
2023-11-18T03:36:27.060Z,99077.44
2023-11-18T03:38:30.174Z,99074.16
2023-11-18T03:40:32.716Z,99089.16
2023-11-18T03:42:37.334Z,99080.09
2023-11-18T03:44:39.884Z,99088.09
2023-11-18T03:46:43.884Z,99078.13
2023-11-18T03:48:46.411Z,99087.16
2023-11-18T03:50:48.814Z,99084.50
2023-11-18T03:52:51.318Z,99084.50
2023-11-18T03:54:53.776Z,99089.59
2023-11-18T03:56:56.241Z,99088.97
2023-11-18T03:58:58.912Z,99102.25
2023-11-18T04:01:02.898Z,99101.66
2023-11-18T04:03:09.135Z,99102.47
2023-11-18T04:05:11.729Z,99101.34
2023-11-18T04:07:14.346Z,99103.44
2023-11-18T04:09:17.436Z,99096.88
2023-11-18T04:11:19.878Z,99107.03
2023-11-18T04:13:22.318Z,99103.56
2023-11-18T04:15:25.745Z,99105.28
2023-11-18T04:17:31.035Z,99112.16
2023-11-18T04:19:33.557Z,99111.44
2023-11-18T04:21:35.965Z,99110.38
2023-11-18T04:23:43.305Z,99113.31
2023-11-18T04:25:45.923Z,99121.22
2023-11-18T04:27:48.572Z,99112.09
2023-11-18T04:29:51.126Z,99118.16
2023-11-18T04:31:54.932Z,99116.59
2023-11-18T04:33:57.418Z,99124.59
2023-11-18T04:36:00.062Z,99131.03
2023-11-18T04:38:02.561Z,99129.22
2023-11-18T04:40:05.566Z,99122.03
2023-11-18T04:42:08.392Z,99131.50
2023-11-18T04:44:10.909Z,99136.84
2023-11-18T04:46:13.418Z,99140.41
2023-11-18T04:48:17.538Z,99137.69
2023-11-18T04:50:20.218Z,99144.78
2023-11-18T04:52:22.688Z,99140.53
2023-11-18T04:54:25.689Z,99149.50
2023-11-18T04:56:28.209Z,99156.44
2023-11-18T04:58:30.649Z,99147.81
2023-11-18T05:00:40.253Z,99150.56
2023-11-18T05:02:43.088Z,99155.69
2023-11-18T05:04:46.384Z,99155.56
2023-11-18T05:06:48.885Z,99155.56
2023-11-18T05:08:51.274Z,99160.06
2023-11-18T05:10:53.808Z,99150.13
2023-11-18T05:12:58.927Z,99162.78
2023-11-18T05:15:02.092Z,99169.91
2023-11-18T05:17:06.367Z,99165.63
2023-11-18T05:23:03.211Z,99174.56
2023-11-18T05:25:06.239Z,99176.22
2023-11-18T05:27:08.828Z,99183.78
2023-11-18T05:29:11.635Z,99183.47
2023-11-18T05:31:14.134Z,99172.03
2023-11-18T05:33:19.134Z,99192.56
2023-11-18T05:35:25.082Z,99193.41
2023-11-18T05:37:29.409Z,99195.28
2023-11-18T05:39:32.579Z,99196.16
2023-11-18T05:41:36.631Z,99196.69
2023-11-18T05:43:42.157Z,99198.50
2023-11-18T05:46:04.925Z,99200.94
2023-11-18T05:48:07.376Z,99214.28
2023-11-18T05:50:11.293Z,99213.56
2023-11-18T05:52:13.698Z,99213.34
2023-11-18T05:54:16.086Z,99208.94
2023-11-18T05:56:18.459Z,99217.09
2023-11-18T05:58:20.938Z,99216.50
2023-11-18T06:00:33.096Z,99215.66
2023-11-18T06:02:40.943Z,99219.88
2023-11-18T06:04:43.647Z,99227.59
2023-11-18T06:06:46.128Z,99226.63
2023-11-18T06:08:49.156Z,99236.75
2023-11-18T06:10:57.977Z,99231.19
2023-11-18T06:13:00.518Z,99247.00
2023-11-18T06:15:02.948Z,99245.69
2023-11-18T06:17:05.453Z,99250.16
2023-11-18T06:19:08.255Z,99250.06
2023-11-18T06:21:13.104Z,99255.41
2023-11-18T06:23:19.852Z,99254.50
2023-11-18T06:25:23.676Z,99252.75
2023-11-18T06:27:26.306Z,99257.75
2023-11-18T06:29:30.999Z,99267.63
2023-11-18T06:31:33.616Z,99263.53
2023-11-18T06:33:44.589Z,99265.34
2023-11-18T06:35:47.411Z,99264.47
2023-11-18T06:37:49.985Z,99270.06
2023-11-18T06:39:52.450Z,99280.19
2023-11-18T06:41:54.958Z,99286.78
2023-11-18T06:43:58.082Z,99277.88
2023-11-18T06:46:01.076Z,99280.84
2023-11-18T06:48:03.699Z,99286.97
2023-11-18T06:50:07.939Z,99285.06
2023-11-18T06:52:13.416Z,99292.13
2023-11-18T06:54:15.934Z,99294.03
2023-11-18T06:56:19.821Z,99291.34
2023-11-18T06:58:22.234Z,99290.47
2023-11-18T07:00:29.461Z,99303.38
2023-11-18T07:02:32.051Z,99300.66
2023-11-18T07:04:34.562Z,99303.28
2023-11-18T07:06:39.597Z,99301.31
2023-11-18T07:08:42.109Z,99304.63
2023-11-18T07:10:44.724Z,99307.31
2023-11-18T07:12:47.010Z,99308.09
2023-11-18T07:14:50.069Z,99311.06
2023-11-18T07:16:52.567Z,99300.34
2023-11-18T07:18:55.234Z,99314.25
2023-11-18T07:20:59.175Z,99311.69
2023-11-18T07:23:01.883Z,99321.28
2023-11-18T07:25:04.718Z,99319.38
2023-11-18T07:27:07.295Z,99318.69
2023-11-18T07:29:09.775Z,99320.88
2023-11-18T07:31:12.891Z,99332.22
2023-11-18T07:33:16.472Z,99330.69
2023-11-18T07:35:19.389Z,99334.00
2023-11-18T07:37:22.473Z,99331.38
2023-11-18T07:39:26.177Z,99337.34
2023-11-18T07:41:32.558Z,99336.59
2023-11-18T07:43:42.056Z,99335.66
2023-11-18T07:45:44.712Z,99347.09
2023-11-18T07:47:49.729Z,99337.31
2023-11-18T07:49:52.639Z,99340.22
2023-11-18T07:51:55.161Z,99336.69
2023-11-18T07:53:58.190Z,99353.41
2023-11-18T07:56:03.194Z,99348.88
2023-11-18T07:58:06.350Z,99347.31
2023-11-18T08:00:12.624Z,99361.38
2023-11-18T08:02:18.504Z,99353.47
2023-11-18T08:04:22.403Z,99355.09
2023-11-18T08:06:28.651Z,99357.88
2023-11-18T08:08:31.269Z,99354.34
2023-11-18T08:10:34.648Z,99362.31
2023-11-18T08:12:37.764Z,99357.09
2023-11-18T08:14:40.123Z,99354.47
2023-11-18T08:16:42.779Z,99366.75
2023-11-18T08:18:46.389Z,99361.31
2023-11-18T08:20:48.969Z,99364.16
2023-11-18T08:22:51.346Z,99373.06
2023-11-18T08:24:54.191Z,99376.34
2023-11-18T08:26:57.536Z,99378.38
2023-11-18T08:29:00.281Z,99374.69
2023-11-18T08:31:02.921Z,99381.72
2023-11-18T08:33:06.825Z,99388.03
2023-11-18T08:35:11.189Z,99387.03
2023-11-18T08:37:15.250Z,99392.44
2023-11-18T08:39:18.076Z,99394.34
2023-11-18T08:41:21.589Z,99389.19
2023-11-18T08:43:24.380Z,99402.34
2023-11-18T08:45:30.692Z,99407.94
2023-11-18T08:47:33.576Z,99401.59
2023-11-18T08:49:36.325Z,99403.22
2023-11-18T08:51:39.854Z,99407.78
2023-11-18T08:53:47.079Z,99405.25
2023-11-18T08:56:17.442Z,99407.69
2023-11-18T08:58:22.848Z,99413.78
2023-11-18T09:00:49.459Z,99411.25
2023-11-18T09:02:54.829Z,99415.56
2023-11-18T09:04:59.728Z,99408.44
2023-11-18T09:07:02.348Z,99412.97
2023-11-18T09:09:11.288Z,99417.34
2023-11-18T09:11:18.959Z,99420.16
2023-11-18T09:13:31.336Z,99417.25
2023-11-18T09:15:33.855Z,99410.63
2023-11-18T09:17:36.618Z,99413.41
2023-11-18T09:19:39.148Z,99417.75
2023-11-18T09:21:42.395Z,99409.78
2023-11-18T09:23:46.734Z,99415.66
2023-11-18T09:25:49.709Z,99413.91
2023-11-18T09:27:52.228Z,99421.84
2023-11-18T09:29:54.878Z,99424.56
2023-11-18T09:32:00.267Z,99412.34
2023-11-18T09:34:05.576Z,99412.00
2023-11-18T09:36:09.979Z,99419.94
2023-11-18T09:38:14.386Z,99415.09
2023-11-18T09:40:19.580Z,99414.16
2023-11-18T09:42:25.690Z,99414.00
2023-11-18T09:44:28.937Z,99420.25
2023-11-18T09:46:34.797Z,99426.56
2023-11-18T09:48:51.039Z,99426.91
2023-11-18T09:50:55.082Z,99424.75
2023-11-18T09:53:08.552Z,99428.25
2023-11-18T09:55:21.242Z,99436.09
2023-11-18T09:57:45.150Z,99427.97
2023-11-18T10:00:12.534Z,99429.13
2023-11-18T10:02:15.433Z,99429.97
2023-11-18T10:04:19.589Z,99436.22
2023-11-18T10:06:23.118Z,99435.25
2023-11-18T10:08:27.633Z,99438.75
2023-11-18T10:10:38.405Z,99444.69
2023-11-18T10:12:41.749Z,99446.47
2023-11-18T10:14:47.301Z,99444.75
2023-11-18T10:16:50.032Z,99449.25
2023-11-18T10:18:55.151Z,99460.88
2023-11-18T10:21:01.223Z,99459.16
2023-11-18T10:23:14.138Z,99448.56
2023-11-18T10:25:25.711Z,99460.56
2023-11-18T10:27:31.496Z,99445.38
2023-11-18T10:29:34.179Z,99448.72
2023-11-18T10:31:46.127Z,99459.28
2023-11-18T10:33:51.085Z,99448.59
2023-11-18T10:35:57.153Z,99454.78
2023-11-18T10:38:03.153Z,99447.75
2023-11-18T10:40:07.238Z,99465.53
2023-11-18T10:42:10.968Z,99456.72
2023-11-18T10:44:17.214Z,99457.56
2023-11-18T10:46:22.448Z,99463.50
2023-11-18T10:48:26.242Z,99459.78
2023-11-18T10:50:33.544Z,99468.78
2023-11-18T10:52:38.952Z,99471.34
2023-11-18T10:54:55.986Z,99471.47
2023-11-18T10:57:09.323Z,99478.53
2023-11-18T10:59:17.622Z,99466.69
2023-11-18T11:01:33.805Z,99477.59
2023-11-18T11:03:37.569Z,99464.97
2023-11-18T11:05:43.192Z,99474.06
2023-11-18T11:07:47.311Z,99474.03
2023-11-18T11:09:50.950Z,99481.72
2023-11-18T11:12:06.281Z,99484.69
2023-11-18T11:14:13.592Z,99480.38
2023-11-18T11:16:20.976Z,99484.84
2023-11-18T11:18:29.560Z,99484.78
2023-11-18T11:20:43.483Z,99483.19
2023-11-18T11:23:09.965Z,99492.84
2023-11-18T11:25:49.390Z,99501.91
2023-11-18T11:28:11.803Z,99500.91
2023-11-18T11:30:23.959Z,99509.94
2023-11-18T11:32:47.275Z,99502.97
2023-11-18T11:35:09.306Z,99501.44
2023-11-18T11:37:13.234Z,99495.97
2023-11-18T11:39:19.200Z,99506.59
2023-11-18T11:41:28.202Z,99509.28
2023-11-18T11:43:31.447Z,99507.56
2023-11-18T11:45:36.032Z,99513.66
2023-11-18T11:47:45.374Z,99516.31
2023-11-18T11:50:01.755Z,99512.75
2023-11-18T11:52:16.476Z,99512.78
2023-11-18T11:54:46.376Z,99518.34
2023-11-18T11:56:51.004Z,99524.63
2023-11-18T11:58:54.349Z,99526.38
2023-11-18T12:00:57.064Z,99522.00
2023-11-18T12:03:05.875Z,99528.19
2023-11-18T12:05:08.951Z,99524.53
2023-11-18T12:07:18.668Z,99524.44
2023-11-18T12:13:18.351Z,99529.97
2023-11-18T12:15:59.531Z,99534.38
2023-11-18T12:18:14.605Z,99538.84
2023-11-18T12:20:49.321Z,99528.97
2023-11-18T12:23:15.913Z,99537.13
2023-11-18T12:25:40.484Z,99533.31
2023-11-18T12:27:42.904Z,99536.09
2023-11-18T12:29:45.710Z,99547.53
2023-11-18T12:31:48.191Z,99559.84
2023-11-18T12:33:56.513Z,99557.72
2023-11-18T12:36:35.294Z,99552.47
2023-11-18T12:39:04.406Z,99557.63
2023-11-18T12:41:12.887Z,99557.63
2023-11-18T12:43:19.114Z,99562.03
2023-11-18T12:45:47.090Z,99572.06
2023-11-18T12:47:53.600Z,99574.69
2023-11-18T12:49:58.114Z,99576.72
2023-11-18T12:52:05.690Z,99568.69
2023-11-18T12:54:09.108Z,99578.22
2023-11-18T12:56:15.354Z,99578.53
2023-11-18T12:58:19.503Z,99590.00
2023-11-18T13:00:32.063Z,99593.81
2023-11-18T13:02:35.694Z,99595.38
2023-11-18T13:04:41.987Z,99596.97
2023-11-18T13:06:44.440Z,99605.03
2023-11-18T13:08:47.644Z,99606.81
2023-11-18T13:10:51.258Z,99612.16
2023-11-18T13:12:54.969Z,99621.06
2023-11-18T13:14:58.380Z,99626.47
2023-11-18T13:17:01.841Z,99632.66
2023-11-18T13:19:06.769Z,99625.50
2023-11-18T13:21:12.398Z,99627.44
2023-11-18T13:23:19.813Z,99635.59
2023-11-18T13:25:29.175Z,99638.34
2023-11-18T13:27:34.047Z,99650.19
2023-11-18T13:29:43.231Z,99652.66
2023-11-18T13:31:45.611Z,99649.97
2023-11-18T13:33:51.272Z,99655.59
2023-11-18T13:35:54.459Z,99659.88
2023-11-18T13:37:57.754Z,99658.06
2023-11-18T13:40:01.548Z,99672.22
2023-11-18T13:42:24.647Z,99671.44
2023-11-18T13:44:39.337Z,99670.63
2023-11-18T13:46:44.039Z,99685.63
2023-11-18T13:48:53.001Z,99683.97
2023-11-18T13:50:55.494Z,99686.66
2023-11-18T13:52:59.352Z,99697.44
2023-11-18T13:55:02.203Z,99693.97
2023-11-18T13:57:05.524Z,99698.28
2023-11-18T13:59:07.979Z,99699.47
2023-11-18T14:01:13.788Z,99707.44
2023-11-18T14:03:17.264Z,99702.94
2023-11-18T14:05:20.974Z,99707.41
2023-11-18T14:07:25.799Z,99707.38
2023-11-18T14:09:31.023Z,99705.53
2023-11-18T14:11:33.665Z,99717.09
2023-11-18T14:13:36.461Z,99715.28
2023-11-18T14:15:38.843Z,99719.75
2023-11-18T14:17:47.355Z,99738.66
2023-11-18T14:19:51.763Z,99715.38
2023-11-18T14:21:54.360Z,99734.06
2023-11-18T14:24:01.461Z,99729.50
2023-11-18T14:26:04.033Z,99732.25
2023-11-18T14:28:06.348Z,99746.53
2023-11-18T14:30:10.833Z,99756.25
2023-11-18T14:32:15.568Z,99744.78
2023-11-18T14:34:18.149Z,99746.69
2023-11-18T14:36:23.563Z,99747.47
2023-11-18T14:38:26.127Z,99752.72
2023-11-18T14:40:29.362Z,99768.66
2023-11-18T14:42:32.030Z,99749.97
2023-11-18T14:44:35.833Z,99760.63
2023-11-18T14:46:42.532Z,99758.94
2023-11-18T14:48:45.150Z,99761.75
2023-11-18T14:50:47.628Z,99766.00
2023-11-18T14:53:01.171Z,99773.13
2023-11-18T14:55:05.813Z,99767.81
2023-11-18T14:57:08.255Z,99764.13
2023-11-18T14:59:11.843Z,99769.63
2023-11-18T15:01:14.274Z,99769.78
2023-11-18T15:03:17.280Z,99772.38
2023-11-18T15:05:21.878Z,99769.59
2023-11-18T15:07:24.335Z,99773.16
2023-11-18T15:09:26.674Z,99790.13
2023-11-18T15:11:29.775Z,99791.88
2023-11-18T15:13:33.614Z,99796.34
2023-11-18T15:15:36.996Z,99791.03
2023-11-18T15:17:46.337Z,99791.84
2023-11-18T15:19:52.350Z,99792.09
2023-11-18T15:21:54.932Z,99796.38
2023-11-18T15:24:02.294Z,99794.59
2023-11-18T15:26:05.664Z,99793.84
2023-11-18T15:28:11.130Z,99802.50
2023-11-18T15:30:14.990Z,99797.28
2023-11-18T15:32:18.764Z,99802.56
2023-11-18T15:34:21.338Z,99806.09
2023-11-18T15:36:23.794Z,99810.69
2023-11-18T15:38:26.398Z,99806.88
2023-11-18T15:40:29.838Z,99813.16
2023-11-18T15:42:34.575Z,99814.13
2023-11-18T15:44:37.066Z,99813.44
2023-11-18T15:46:39.950Z,99818.78
2023-11-18T15:48:45.153Z,99816.88
2023-11-18T15:50:47.760Z,99817.75
2023-11-18T15:52:53.517Z,99817.75
2023-11-18T15:54:56.091Z,99817.72
2023-11-18T15:57:00.121Z,99816.81
2023-11-18T15:59:03.037Z,99817.66
2023-11-18T16:01:06.291Z,99814.13
2023-11-18T16:03:10.327Z,99817.59
2023-11-18T16:05:17.026Z,99818.66
2023-11-18T16:07:19.575Z,99823.88
2023-11-18T16:09:22.732Z,99818.75
2023-11-18T16:11:25.171Z,99827.56
2023-11-18T16:13:27.592Z,99826.63
2023-11-18T16:15:32.174Z,99827.56
2023-11-18T16:17:34.708Z,99836.38
2023-11-18T16:19:38.087Z,99836.38
2023-11-18T16:21:40.702Z,99837.25
2023-11-18T16:23:43.661Z,99843.59
2023-11-18T16:25:48.640Z,99836.53
2023-11-18T16:27:52.583Z,99836.44
2023-11-18T16:29:55.023Z,99832.75
2023-11-18T16:31:57.519Z,99831.97
2023-11-18T16:34:00.029Z,99843.69
2023-11-18T16:36:02.623Z,99846.09
2023-11-18T16:38:05.184Z,99850.84
2023-11-18T16:40:11.447Z,99848.16
2023-11-18T16:42:14.058Z,99846.34
2023-11-18T16:44:16.674Z,99849.84
2023-11-18T16:46:19.616Z,99849.97
2023-11-18T16:48:22.513Z,99857.84
2023-11-18T16:50:26.340Z,99850.78
2023-11-18T16:52:28.834Z,99863.47
2023-11-18T16:54:38.988Z,99864.34
2023-11-18T16:56:43.627Z,99863.31
2023-11-18T16:58:45.957Z,99857.13
2023-11-18T17:00:52.509Z,99857.13
2023-11-18T17:02:58.700Z,99862.34
2023-11-18T17:05:03.632Z,99868.66
2023-11-18T17:07:06.132Z,99865.84
2023-11-18T17:09:08.726Z,99867.59
2023-11-18T17:11:11.354Z,99871.13
2023-11-18T17:13:13.719Z,99873.94
2023-11-18T17:15:17.348Z,99880.03
2023-11-18T17:17:19.949Z,99877.28
2023-11-18T17:19:23.221Z,99878.16
2023-11-18T17:21:25.671Z,99876.41
2023-11-18T17:23:28.145Z,99890.72
2023-11-18T17:25:31.079Z,99883.69
2023-11-18T17:27:33.646Z,99883.63
2023-11-18T17:29:36.144Z,99897.81
2023-11-18T17:31:42.914Z,99895.19
2023-11-18T17:33:45.526Z,99899.69
2023-11-18T17:35:48.354Z,99904.09
2023-11-18T17:37:50.846Z,99902.34
2023-11-18T17:39:53.332Z,99902.34
2023-11-18T17:41:56.001Z,99901.63
2023-11-18T17:43:58.319Z,99906.91
2023-11-18T17:46:00.788Z,99910.38
2023-11-18T17:48:07.592Z,99911.31
2023-11-18T17:50:13.476Z,99910.44
2023-11-18T17:52:16.104Z,99906.91
2023-11-18T17:54:18.712Z,99901.63
2023-11-18T17:56:21.200Z,99909.78
2023-11-18T17:58:23.620Z,99906.25
2023-11-18T18:00:28.849Z,99909.91
2023-11-18T18:02:31.406Z,99910.84
2023-11-18T18:04:33.988Z,99912.72
2023-11-18T18:06:36.449Z,99924.25
2023-11-18T18:08:38.747Z,99912.03
2023-11-18T18:10:41.799Z,99914.56
2023-11-18T18:12:48.192Z,99914.50
2023-11-18T18:14:52.967Z,99919.03
2023-11-18T18:16:57.467Z,99925.41
2023-11-18T18:19:01.659Z,99925.53
2023-11-18T18:21:04.214Z,99930.75
2023-11-18T18:23:06.672Z,99934.34
2023-11-18T18:25:10.337Z,99943.31
2023-11-18T18:27:15.408Z,99938.03
2023-11-18T18:29:17.914Z,99931.69
2023-11-18T18:31:20.576Z,99946.78
2023-11-18T18:33:23.120Z,99945.09
2023-11-18T18:35:27.199Z,99948.72
2023-11-18T18:37:29.715Z,99949.69
2023-11-18T18:39:32.091Z,99947.09
2023-11-18T18:41:34.725Z,99947.06
2023-11-18T18:43:38.279Z,99946.09
2023-11-18T18:45:41.121Z,99950.44
2023-11-18T18:47:43.678Z,99941.56
2023-11-18T18:49:46.157Z,99937.03
2023-11-18T18:51:49.889Z,99944.25
2023-11-18T18:53:53.346Z,99940.63
2023-11-18T18:55:56.317Z,99950.47
2023-11-18T18:57:59.174Z,99949.53
2023-11-18T19:00:01.536Z,99960.22
2023-11-18T19:02:04.654Z,99953.84
2023-11-18T19:04:07.280Z,99949.31
2023-11-18T19:06:12.809Z,99950.25
2023-11-18T19:08:15.364Z,99945.97
2023-11-18T19:10:17.918Z,99951.44
2023-11-18T19:12:20.678Z,99949.50
2023-11-18T19:14:24.656Z,99953.94
2023-11-18T19:16:27.700Z,99941.44
2023-11-18T19:18:30.773Z,99939.56
2023-11-18T19:20:33.324Z,99946.78
2023-11-18T19:22:35.766Z,99942.38
2023-11-18T19:24:40.036Z,99952.00
2023-11-18T19:26:42.478Z,99954.66
2023-11-18T19:28:44.851Z,99948.50
2023-11-18T19:30:47.973Z,99962.69
2023-11-18T19:32:50.733Z,99962.69
2023-11-18T19:34:54.785Z,99973.28
2023-11-18T19:36:57.494Z,99967.09
2023-11-18T19:38:59.938Z,99973.28
2023-11-18T19:41:02.322Z,99973.31
2023-11-18T19:43:08.390Z,99976.84
2023-11-18T19:45:14.629Z,99972.34
2023-11-18T19:47:17.828Z,99982.19
2023-11-18T19:49:23.344Z,99975.09
2023-11-18T19:51:25.982Z,99980.44
2023-11-18T19:53:31.647Z,99975.09
2023-11-18T19:55:34.977Z,99970.63
2023-11-18T19:57:37.967Z,99964.44
2023-11-18T19:59:40.561Z,99974.97
2023-11-18T20:01:43.879Z,99976.84
2023-11-18T20:03:46.435Z,99977.63
2023-11-18T20:05:49.311Z,99977.69
2023-11-18T20:07:51.706Z,99983.09
2023-11-18T20:09:54.613Z,99989.25
2023-11-18T20:14:02.933Z,100000.06
2023-11-18T20:16:08.617Z,100014.38
2023-11-18T20:18:14.146Z,100008.03
2023-11-18T20:20:20.476Z,100010.56
2023-11-18T20:22:23.087Z,100009.84
2023-11-18T20:24:25.635Z,100008.09
2023-11-18T20:26:28.155Z,100007.31
2023-11-18T20:28:35.750Z,100005.50
2023-11-18T20:30:38.462Z,99997.44
2023-11-18T20:32:42.722Z,99998.34
2023-11-18T20:34:51.461Z,99999.16
2023-11-18T20:36:55.514Z,100002.63
2023-11-18T20:39:06.194Z,99998.22
2023-11-18T20:41:20.341Z,99997.34
2023-11-18T20:43:23.683Z,99996.47
2023-11-18T20:45:27.357Z,99996.41
2023-11-18T20:47:29.840Z,100000.22
2023-11-18T20:49:32.830Z,100007.22
2023-11-18T20:51:35.995Z,100008.19
2023-11-18T20:53:38.822Z,100021.66
2023-11-18T20:55:41.166Z,100025.25
2023-11-18T20:57:44.000Z,100014.66
2023-11-18T20:59:46.773Z,100015.69
2023-11-18T21:01:49.577Z,100010.41
2023-11-18T21:03:52.345Z,100013.00
2023-11-18T21:05:55.876Z,100016.50
2023-11-18T21:08:02.366Z,100013.75
2023-11-18T21:10:08.590Z,100010.16
2023-11-18T21:12:18.244Z,100020.03
2023-11-18T21:14:23.188Z,100021.84
2023-11-18T21:16:25.766Z,100028.06
2023-11-18T21:18:29.111Z,100024.53
2023-11-18T21:20:31.784Z,100014.63
2023-11-18T21:22:34.875Z,100018.22
2023-11-18T21:24:37.793Z,100014.63
2023-11-18T21:26:41.130Z,100019.88
2023-11-18T21:28:43.495Z,100019.84
2023-11-18T21:30:46.026Z,100013.47
2023-11-18T21:32:48.400Z,100023.31
2023-11-18T21:34:50.942Z,100021.41
2023-11-18T21:36:53.701Z,100027.53
2023-11-18T21:38:56.203Z,100028.41
2023-11-18T21:41:00.537Z,100027.50
2023-11-18T21:43:03.542Z,100023.06
2023-11-18T21:45:06.387Z,100017.59
2023-11-18T21:47:11.728Z,100023.00
2023-11-18T21:49:15.219Z,100030.97
2023-11-18T21:51:17.562Z,100031.03
2023-11-18T21:53:24.355Z,100032.84
2023-11-18T21:55:28.083Z,100030.03
2023-11-18T21:57:30.692Z,100030.03
2023-11-18T21:59:35.872Z,100028.16
2023-11-18T22:01:40.602Z,100027.28
2023-11-18T22:03:43.767Z,100033.44
2023-11-18T22:05:48.608Z,100032.75
2023-11-18T22:07:52.214Z,100026.56
2023-11-18T22:09:55.736Z,100027.44
2023-11-18T22:11:58.381Z,100021.34
2023-11-18T22:14:01.091Z,100015.97
2023-11-18T22:16:05.209Z,100022.28
2023-11-18T22:18:10.175Z,100041.09
2023-11-18T22:20:14.429Z,100049.06
2023-11-18T22:22:17.289Z,100047.25
2023-11-18T22:24:20.119Z,100048.00
2023-11-18T22:26:23.606Z,100057.81
2023-11-18T22:28:26.021Z,100056.13
2023-11-18T22:30:28.569Z,100045.38
2023-11-18T22:32:31.257Z,100048.88
2023-11-18T22:34:36.687Z,100047.31
2023-11-18T22:36:40.844Z,100041.72
2023-11-18T22:38:44.036Z,100044.47
2023-11-18T22:40:46.569Z,100042.66
2023-11-18T22:42:54.133Z,100042.78
2023-11-18T22:44:56.627Z,100037.31
2023-11-18T22:47:01.891Z,100044.56
2023-11-18T22:49:04.847Z,100043.59
2023-11-18T22:51:07.564Z,100055.16
2023-11-18T22:53:12.571Z,100050.75
2023-11-18T22:55:16.119Z,100058.75
2023-11-18T22:57:19.278Z,100060.47
2023-11-18T22:59:22.097Z,100070.25
2023-11-18T23:01:26.434Z,100058.69
2023-11-18T23:03:35.347Z,100047.00
2023-11-18T23:05:47.076Z,100044.41
2023-11-18T23:07:52.999Z,100037.22
2023-11-18T23:10:02.252Z,100045.25
2023-11-18T23:12:07.469Z,100038.09
2023-11-18T23:14:10.016Z,100035.44
2023-11-18T23:16:15.553Z,100040.78
2023-11-18T23:18:20.489Z,100032.91
2023-11-18T23:20:23.100Z,100039.13
2023-11-18T23:22:25.625Z,100042.78
2023-11-18T23:24:28.463Z,100046.38
2023-11-18T23:26:31.054Z,100044.56
2023-11-18T23:28:34.854Z,100030.28
2023-11-18T23:30:37.299Z,100033.78
2023-11-18T23:32:41.500Z,100032.84
2023-11-18T23:34:44.159Z,100032.84
2023-11-18T23:36:46.691Z,100033.75
2023-11-18T23:38:49.238Z,100035.53
2023-11-18T23:40:51.965Z,100043.50
2023-11-18T23:42:54.546Z,100040.94
2023-11-18T23:44:57.204Z,100050.88
2023-11-18T23:47:01.921Z,100053.47
2023-11-18T23:49:04.674Z,100057.06
2023-11-18T23:51:07.617Z,100057.16
2023-11-18T23:53:10.154Z,100063.44
2023-11-18T23:55:16.104Z,100052.66
2023-11-18T23:57:20.871Z,100052.63
2023-11-18T23:59:25.359Z,100049.91
